Time;durP1;ratioP1;P1;durP2;ratioP2;P2;SDS_P1;SDS_P2;PMS_P1;PMS_P2;Temp;Humidity;BMP_temperature;BMP_pressure;BME280_temperature;BME280_humidity;BME280_pressure;Samples;Min_cycle;Max_cycle;Signal;HPM_P1;HPM_P2
2021/05/01 00:00:05;;;;;;;4.13;1.80;;;7.40;99.90;;;;;;5017159;28;20215;-78
2021/05/01 00:02:31;;;;;;;1.48;1.40;;;7.50;99.90;;;;;;5034392;28;20164;-78
2021/05/01 00:04:56;;;;;;;1.17;1.17;;;7.60;99.90;;;;;;5034464;28;20568;-78
2021/05/01 00:07:22;;;;;;;11.40;1.95;;;7.60;99.90;;;;;;5034416;28;20200;-78
2021/05/01 00:09:48;;;;;;;1.13;1.13;;;7.40;99.90;;;;;;5016695;28;20845;-78
2021/05/01 00:12:14;;;;;;;2.22;2.08;;;7.50;99.90;;;;;;5034171;28;20274;-79
2021/05/01 00:14:39;;;;;;;1.65;1.52;;;7.50;99.90;;;;;;5016895;28;20586;-79
2021/05/01 00:17:06;;;;;;;4.05;2.03;;;7.40;99.90;;;;;;5034780;28;20192;-79
2021/05/01 00:19:32;;;;;;;3.00;2.80;;;7.10;99.90;;;;;;5034490;28;20209;-78
2021/05/01 00:21:57;;;;;;;3.88;1.70;;;7.00;99.90;;;;;;5034284;28;20199;-78
2021/05/01 00:24:23;;;;;;;2.45;2.25;;;6.90;99.90;;;;;;5034385;28;20246;-78
2021/05/01 00:26:48;;;;;;;3.38;0.85;;;6.90;99.90;;;;;;5034291;28;20196;-78
2021/05/01 00:29:15;;;;;;;1.15;1.15;;;7.00;99.90;;;;;;5033921;28;20306;-78
2021/05/01 00:31:41;;;;;;;4.25;2.38;;;7.10;99.90;;;;;;5033959;28;20184;-78
2021/05/01 00:34:06;;;;;;;1.67;1.60;;;7.20;99.90;;;;;;5033825;28;20167;-78
2021/05/01 00:36:32;;;;;;;1.65;1.50;;;7.30;99.90;;;;;;5015919;28;20619;-78
2021/05/01 00:38:58;;;;;;;1.30;1.20;;;7.50;99.90;;;;;;5033585;28;20646;-78
2021/05/01 00:41:24;;;;;;;1.10;1.10;;;7.50;99.90;;;;;;5033825;28;20674;-78
2021/05/01 00:43:49;;;;;;;4.40;1.63;;;7.30;99.90;;;;;;5016075;28;20190;-78
2021/05/01 00:46:15;;;;;;;1.67;1.15;;;7.00;99.90;;;;;;5033735;28;20160;-79
2021/05/01 00:48:41;;;;;;;1.88;1.77;;;6.70;99.90;;;;;;5016329;28;20257;-79
2021/05/01 00:51:07;;;;;;;1.17;1.13;;;6.70;99.90;;;;;;5033496;28;20192;-79
2021/05/01 00:53:33;;;;;;;3.28;1.95;;;6.60;99.90;;;;;;5033534;28;20199;-78
2021/05/01 00:55:59;;;;;;;1.58;1.50;;;6.60;99.90;;;;;;5033570;28;20160;-77
2021/05/01 00:58:26;;;;;;;2.33;2.22;;;6.70;99.90;;;;;;5033448;28;20698;-78
2021/05/01 01:03:26;;;;;;;1.10;1.10;;;6.60;99.90;;;;;;5033288;28;20310;-78
2021/05/01 01:05:51;;;;;;;1.70;1.60;;;6.60;99.90;;;;;;5033208;28;20168;-78
2021/05/01 01:08:17;;;;;;;1.73;1.63;;;6.70;99.90;;;;;;5033333;28;20199;-78
2021/05/01 01:10:43;;;;;;;0.95;0.95;;;6.80;99.90;;;;;;5033161;28;20237;-78
2021/05/01 01:13:09;;;;;;;8.60;2.17;;;6.60;99.90;;;;;;5033351;28;20160;-77
2021/05/01 01:15:35;;;;;;;2.75;1.42;;;6.50;99.90;;;;;;5033096;28;20229;-77
2021/05/01 01:18:01;;;;;;;1.10;1.10;;;6.30;99.90;;;;;;5015517;28;20589;-77
2021/05/01 01:20:27;;;;;;;2.25;2.08;;;6.40;99.90;;;;;;5032953;28;20180;-78
2021/05/01 01:22:54;;;;;;;3.65;3.42;;;6.50;99.90;;;;;;5033235;28;20156;-78
2021/05/01 01:25:20;;;;;;;2.15;2.05;;;6.60;99.90;;;;;;5033113;28;20162;-78
2021/05/01 01:27:47;;;;;;;1.95;1.85;;;6.40;99.90;;;;;;5025964;28;20234;-78
2021/05/01 01:30:14;;;;;;;2.83;2.22;;;6.40;99.90;;;;;;5052897;28;20211;-78
2021/05/01 01:32:41;;;;;;;1.55;1.45;;;6.50;99.90;;;;;;5052971;28;20167;-78
2021/05/01 01:35:08;;;;;;;0.60;0.60;;;6.40;99.90;;;;;;5051580;28;20221;-78
2021/05/01 01:37:37;;;;;;;1.25;1.15;;;6.30;99.90;;;;;;5053060;28;20217;-77
2021/05/01 01:40:03;;;;;;;32.97;2.88;;;6.10;99.90;;;;;;5051738;28;20166;-78
2021/05/01 01:42:29;;;;;;;2.95;1.98;;;6.00;99.90;;;;;;5055235;28;20247;-78
2021/05/01 01:44:56;;;;;;;1.10;1.08;;;5.90;99.90;;;;;;5061580;28;20186;-79
2021/05/01 01:47:22;;;;;;;2.20;1.83;;;5.80;99.90;;;;;;5064036;28;20151;-79
2021/05/01 01:49:47;;;;;;;4.13;3.03;;;5.80;99.90;;;;;;5062141;28;20232;-78
2021/05/01 01:52:13;;;;;;;4.53;1.13;;;6.00;99.90;;;;;;5057723;28;20183;-78
2021/05/01 01:54:38;;;;;;;2.65;2.00;;;6.00;99.90;;;;;;5056368;28;20694;-78
2021/05/01 01:57:05;;;;;;;2.60;2.33;;;6.10;99.90;;;;;;5057495;28;20175;-78
2021/05/01 01:59:30;;;;;;;2.55;2.35;;;5.90;99.90;;;;;;5057475;28;20254;-78
2021/05/01 02:01:57;;;;;;;4.22;1.65;;;5.70;99.90;;;;;;5057107;28;20214;-78
2021/05/01 02:04:23;;;;;;;3.03;2.10;;;5.70;99.90;;;;;;5055600;28;20229;-78
2021/05/01 02:06:49;;;;;;;1.63;1.55;;;5.90;99.90;;;;;;5057008;28;20552;-78
2021/05/01 02:09:14;;;;;;;1.75;1.45;;;6.00;99.90;;;;;;5056845;28;20198;-78
2021/05/01 02:11:40;;;;;;;1.35;1.25;;;6.10;99.90;;;;;;5056792;28;20190;-78
2021/05/01 02:14:06;;;;;;;0.70;0.70;;;6.10;99.90;;;;;;5067954;28;20152;-77
2021/05/01 02:16:33;;;;;;;1.65;1.55;;;6.20;99.90;;;;;;5081999;28;20144;-78
2021/05/01 02:18:59;;;;;;;4.00;1.13;;;6.20;99.90;;;;;;5081862;28;20183;-78
2021/05/01 02:21:25;;;;;;;1.45;1.30;;;6.20;99.90;;;;;;5081257;28;20175;-78
2021/05/01 02:23:51;;;;;;;6.20;2.53;;;6.10;99.90;;;;;;5063026;28;20166;-78
2021/05/01 02:26:17;;;;;;;2.45;1.85;;;6.10;99.90;;;;;;5057800;28;20151;-78
2021/05/01 02:28:43;;;;;;;1.10;1.10;;;6.00;99.90;;;;;;5041619;28;20227;-78
2021/05/01 02:31:09;;;;;;;8.80;1.77;;;5.90;99.90;;;;;;5036488;28;20184;-78
2021/05/01 02:33:34;;;;;;;14.20;3.10;;;5.90;99.90;;;;;;5018864;28;20187;-79
2021/05/01 02:36:00;;;;;;;0.95;0.95;;;5.90;99.90;;;;;;5036474;28;20164;-78
2021/05/01 02:38:26;;;;;;;3.40;3.10;;;5.60;99.90;;;;;;5036385;28;20374;-78
2021/05/01 02:40:51;;;;;;;1.58;1.00;;;5.50;99.90;;;;;;5018609;28;20187;-79
2021/05/01 02:43:17;;;;;;;2.92;2.53;;;5.70;99.90;;;;;;5036139;28;20195;-79
2021/05/01 02:45:43;;;;;;;0.65;0.65;;;5.80;99.90;;;;;;5036374;28;20167;-78
2021/05/01 02:48:10;;;;;;;2.90;2.17;;;5.70;99.90;;;;;;5035999;28;20286;-77
2021/05/01 02:50:36;;;;;;;2.05;1.52;;;5.80;99.90;;;;;;5035975;28;20187;-78
2021/05/01 02:53:02;;;;;;;1.13;1.02;;;5.70;99.90;;;;;;5036117;28;20159;-76
2021/05/01 02:55:27;;;;;;;1.17;1.13;;;5.70;99.90;;;;;;5018177;28;20267;-78
2021/05/01 02:57:54;;;;;;;3.80;3.53;;;5.70;99.90;;;;;;5035863;28;20207;-77
2021/05/01 03:00:22;;;;;;;2.05;1.95;;;5.70;99.90;;;;;;5035149;28;20203;-78
2021/05/01 03:02:48;;;;;;;2.53;2.35;;;5.70;99.90;;;;;;5035554;28;20164;-78
2021/05/01 03:05:15;;;;;;;2.75;2.45;;;5.60;99.90;;;;;;5035684;28;20183;-77
2021/05/01 03:07:42;;;;;;;1.40;1.30;;;5.40;99.90;;;;;;5035486;28;20264;-77
2021/05/01 03:10:13;;;;;;;1.20;1.15;;;5.30;99.90;;;;;;5035440;28;20160;-77
2021/05/01 03:12:38;;;;;;;3.00;2.03;;;5.30;99.90;;;;;;5035362;28;20172;-77
2021/05/01 03:15:07;;;;;;;2.35;1.95;;;5.40;99.90;;;;;;5035537;28;20534;-77
2021/05/01 03:17:33;;;;;;;2.28;2.08;;;5.40;99.90;;;;;;5035795;28;20274;-77
2021/05/01 03:19:59;;;;;;;1.85;1.77;;;5.30;99.90;;;;;;5035591;28;20694;-77
2021/05/01 03:22:24;;;;;;;0.90;0.90;;;5.30;99.90;;;;;;5035422;28;20172;-77
2021/05/01 03:24:50;;;;;;;0.98;0.98;;;5.40;99.90;;;;;;5035201;28;20167;-77
2021/05/01 03:27:16;;;;;;;10.23;1.75;;;5.60;99.90;;;;;;5034927;28;20216;-77
2021/05/01 03:29:41;;;;;;;1.58;1.48;;;5.80;99.90;;;;;;5017510;28;20171;-77
2021/05/01 03:32:07;;;;;;;2.78;2.67;;;5.60;99.90;;;;;;5035051;28;20187;-78
2021/05/01 03:34:33;;;;;;;0.77;0.77;;;5.30;99.90;;;;;;5035171;28;20544;-77
2021/05/01 03:36:59;;;;;;;2.05;1.70;;;5.30;99.90;;;;;;5034923;28;20160;-77
2021/05/01 03:39:24;;;;;;;1.00;1.00;;;5.10;99.90;;;;;;5034949;28;20171;-77
2021/05/01 03:41:50;;;;;;;1.23;1.13;;;5.20;99.90;;;;;;5034751;28;20187;-79
2021/05/01 03:44:16;;;;;;;0.77;0.77;;;5.40;99.90;;;;;;5034904;28;20164;-79
2021/05/01 03:46:42;;;;;;;8.15;2.97;;;5.40;99.90;;;;;;5034974;28;20531;-79
2021/05/01 03:49:07;;;;;;;1.88;1.77;;;5.40;99.90;;;;;;5034643;28;20210;-77
2021/05/01 03:51:33;;;;;;;2.92;2.80;;;5.60;99.90;;;;;;5034704;28;20180;-78
2021/05/01 03:53:59;;;;;;;2.97;1.50;;;5.60;99.90;;;;;;5034596;28;20156;-78
2021/05/01 03:56:24;;;;;;;2.92;2.70;;;5.40;99.90;;;;;;5034688;28;20163;-78
2021/05/01 03:58:50;;;;;;;0.75;0.75;;;5.20;99.90;;;;;;5034676;28;20168;-78
2021/05/01 04:01:15;;;;;;;0.82;0.82;;;5.20;99.90;;;;;;5034472;28;20198;-78
2021/05/01 04:03:41;;;;;;;2.95;2.05;;;5.10;99.90;;;;;;5034510;28;20233;-78
2021/05/01 04:06:07;;;;;;;1.20;1.20;;;5.00;99.90;;;;;;5034315;28;20176;-78
2021/05/01 04:08:33;;;;;;;2.13;1.52;;;4.90;99.90;;;;;;5034245;28;20204;-79
2021/05/01 04:10:59;;;;;;;2.10;2.00;;;4.90;99.90;;;;;;5034251;28;20528;-79
2021/05/01 04:13:25;;;;;;;1.90;1.80;;;5.00;99.90;;;;;;5015806;28;20602;-78
2021/05/01 04:15:51;;;;;;;0.68;0.68;;;5.00;99.90;;;;;;5034208;28;20164;-78
2021/05/01 04:18:17;;;;;;;1.85;1.75;;;5.00;99.90;;;;;;5034285;28;20546;-78
2021/05/01 04:20:43;;;;;;;1.38;1.38;;;5.20;99.90;;;;;;5034139;28;20180;-79
2021/05/01 04:23:08;;;;;;;1.45;1.35;;;5.30;99.90;;;;;;5047747;28;20171;-78
2021/05/01 04:25:37;;;;;;;1.45;1.45;;;5.30;99.90;;;;;;5051835;28;20164;-78
2021/05/01 04:28:04;;;;;;;2.90;2.40;;;5.10;99.90;;;;;;5053919;28;20265;-79
2021/05/01 04:30:31;;;;;;;1.55;1.13;;;5.10;99.90;;;;;;5071128;28;20187;-79
2021/05/01 04:32:56;;;;;;;1.42;1.35;;;5.10;99.90;;;;;;5054583;28;20170;-77
2021/05/01 04:35:22;;;;;;;2.95;2.10;;;5.20;99.90;;;;;;5054339;28;20167;-77
2021/05/01 04:37:48;;;;;;;2.33;2.22;;;5.10;99.90;;;;;;5054044;28;20225;-77
2021/05/01 04:40:14;;;;;;;2.95;2.25;;;4.90;99.90;;;;;;5054085;28;20669;-77
2021/05/01 04:42:47;;;;;;;3.58;1.70;;;5.20;99.90;;;;;;5054118;28;20273;-78
2021/05/01 04:45:15;;;;;;;2.03;1.88;;;5.20;99.90;;;;;;5054182;28;20171;-78
2021/05/01 04:47:41;;;;;;;3.75;1.90;;;5.30;99.90;;;;;;5053850;28;20272;-78
2021/05/01 04:50:07;;;;;;;3.20;2.25;;;5.40;99.90;;;;;;5052686;28;20536;-78
2021/05/01 04:52:33;;;;;;;2.85;2.47;;;5.70;99.90;;;;;;5053576;28;20167;-78
2021/05/01 04:55:04;;;;;;;1.00;1.00;;;5.80;99.90;;;;;;5053439;28;20163;-78
2021/05/01 04:57:29;;;;;;;2.95;2.75;;;5.80;99.90;;;;;;5053591;28;20241;-77
2021/05/01 04:59:55;;;;;;;0.95;0.95;;;5.80;99.90;;;;;;5051960;28;20163;-77
2021/05/01 05:02:21;;;;;;;2.35;2.25;;;5.90;99.90;;;;;;5053190;28;20171;-78
2021/05/01 05:04:46;;;;;;;2.50;2.30;;;5.80;99.90;;;;;;5051979;28;20598;-78
2021/05/01 05:07:12;;;;;;;2.17;1.98;;;5.90;99.90;;;;;;5068473;28;20171;-78
2021/05/01 05:09:37;;;;;;;0.57;0.57;;;6.20;99.90;;;;;;5053120;28;20175;-78
2021/05/01 05:12:03;;;;;;;6.88;2.00;;;6.20;99.90;;;;;;5053091;28;20183;-77
2021/05/01 05:14:29;;;;;;;1.00;0.95;;;6.10;99.90;;;;;;5053073;28;20539;-77
2021/05/01 05:16:54;;;;;;;1.63;1.52;;;6.00;99.90;;;;;;5053162;28;20155;-77
2021/05/01 05:19:20;;;;;;;3.72;2.25;;;6.00;99.90;;;;;;5053102;28;20171;-77
2021/05/01 05:21:45;;;;;;;1.45;1.35;;;6.30;99.90;;;;;;5052887;28;20257;-78
2021/05/01 05:24:11;;;;;;;3.15;2.08;;;6.20;99.90;;;;;;5052944;28;20155;-77
2021/05/01 05:26:38;;;;;;;2.78;2.35;;;6.20;99.90;;;;;;5052254;28;20175;-78
2021/05/01 05:29:04;;;;;;;1.25;1.25;;;6.30;99.90;;;;;;5035019;28;20235;-79
2021/05/01 05:31:30;;;;;;;1.30;1.27;;;6.50;99.90;;;;;;5015202;28;20195;-78
2021/05/01 05:33:55;;;;;;;0.88;0.88;;;6.60;99.90;;;;;;5033151;28;20226;-79
2021/05/01 05:36:21;;;;;;;1.98;1.85;;;6.80;99.90;;;;;;5033011;28;20244;-78
2021/05/01 05:38:46;;;;;;;3.55;2.20;;;7.10;99.90;;;;;;5032942;28;20180;-77
2021/05/01 05:41:12;;;;;;;3.95;1.98;;;7.30;99.90;;;;;;5032632;28;20183;-78
2021/05/01 05:43:38;;;;;;;2.28;2.08;;;7.40;99.90;;;;;;5015199;28;20172;-78
2021/05/01 05:46:12;;;;;;;2.50;2.35;;;7.30;99.90;;;;;;5032793;28;20164;-78
2021/05/01 05:48:38;;;;;;;1.75;1.65;;;7.30;99.90;;;;;;5032961;28;20650;-78
2021/05/01 05:51:05;;;;;;;0.95;0.95;;;7.20;99.90;;;;;;5032748;28;20203;-77
2021/05/01 05:53:30;;;;;;;11.55;4.80;;;7.30;99.90;;;;;;5014948;28;20217;-77
2021/05/01 05:55:56;;;;;;;1.50;1.50;;;7.40;99.90;;;;;;5032681;28;20258;-78
2021/05/01 05:58:23;;;;;;;2.63;2.42;;;7.40;99.90;;;;;;5032725;28;20172;-78
2021/05/01 06:00:49;;;;;;;1.52;1.40;;;7.50;99.90;;;;;;5032634;28;20264;-78
2021/05/01 06:03:16;;;;;;;11.15;4.55;;;7.80;99.90;;;;;;5032711;28;20980;-78
2021/05/01 06:05:46;;;;;;;3.63;3.08;;;7.70;99.90;;;;;;5032700;28;20641;-78
2021/05/01 06:08:12;;;;;;;2.83;2.72;;;7.70;99.90;;;;;;5033139;28;20204;-77
2021/05/01 06:10:39;;;;;;;2.03;1.85;;;8.10;99.90;;;;;;5032535;28;20573;-78
2021/05/01 06:13:07;;;;;;;3.25;2.25;;;8.10;99.90;;;;;;5032880;28;20160;-78
2021/05/01 06:15:33;;;;;;;3.20;2.75;;;8.10;99.90;;;;;;5032748;28;20222;-78
2021/05/01 06:18:01;;;;;;;3.40;2.67;;;8.20;99.90;;;;;;5032660;28;20162;-78
2021/05/01 06:20:28;;;;;;;5.75;1.83;;;8.10;99.90;;;;;;5032683;28;20184;-78
2021/05/01 06:22:54;;;;;;;3.53;3.20;;;8.30;99.90;;;;;;5032545;28;20163;-79
2021/05/01 06:25:21;;;;;;;28.42;2.95;;;8.60;99.90;;;;;;5032562;28;20615;-77
2021/05/01 06:27:51;;;;;;;2.03;1.92;;;8.80;99.90;;;;;;5025730;28;20273;-78
2021/05/01 06:30:17;;;;;;;3.38;3.10;;;8.70;99.90;;;;;;5052416;28;20187;-78
2021/05/01 06:32:43;;;;;;;3.88;2.65;;;8.90;99.90;;;;;;5052322;28;20524;-78
2021/05/01 06:35:09;;;;;;;3.03;2.83;;;8.70;99.90;;;;;;5052710;28;20258;-79
2021/05/01 06:37:39;;;;;;;17.45;3.90;;;8.90;99.90;;;;;;5055918;28;20178;-78
2021/05/01 06:40:11;;;;;;;3.05;2.85;;;9.10;99.90;;;;;;5055779;28;20241;-78
2021/05/01 06:42:48;;;;;;;3.20;2.92;;;9.10;99.90;;;;;;5054612;28;20634;-78
2021/05/01 06:45:16;;;;;;;3.97;3.35;;;9.30;99.90;;;;;;5055854;28;20163;-78
2021/05/01 06:47:53;;;;;;;3.97;3.35;;;9.60;99.90;;;;;;5055775;28;20650;-78
2021/05/01 06:50:22;;;;;;;2.85;2.55;;;9.90;99.90;;;;;;5055672;28;20198;-78
2021/05/01 06:52:48;;;;;;;7.05;3.05;;;9.90;99.90;;;;;;5055556;28;20309;-78
2021/05/01 06:55:18;;;;;;;2.80;2.58;;;10.00;99.90;;;;;;5055768;28;20205;-79
2021/05/01 06:57:46;;;;;;;1.67;1.58;;;9.80;99.90;;;;;;5055577;28;20175;-78
2021/05/01 07:00:14;;;;;;;2.83;2.33;;;9.80;99.90;;;;;;5055639;28;20226;-79
2021/05/01 07:02:43;;;;;;;1.52;1.48;;;9.90;99.90;;;;;;5054483;28;20581;-79
2021/05/01 07:05:18;;;;;;;1.83;1.63;;;9.70;99.90;;;;;;5056374;28;20250;-79
2021/05/01 07:07:45;;;;;;;2.03;1.92;;;9.80;99.90;;;;;;5055615;28;20187;-79
2021/05/01 07:10:11;;;;;;;1.23;1.17;;;10.00;99.90;;;;;;5055467;28;20218;-78
2021/05/01 07:12:37;;;;;;;3.65;2.58;;;10.20;99.90;;;;;;5053930;28;20175;-77
2021/05/01 07:15:05;;;;;;;4.03;2.53;;;10.30;99.90;;;;;;5055285;28;20634;-78
2021/05/01 07:17:31;;;;;;;4.13;2.10;;;10.60;99.90;;;;;;5055099;28;20258;-77
2021/05/01 07:20:00;;;;;;;3.10;1.98;;;11.10;99.90;;;;;;5052489;28;20254;-77
2021/05/01 07:22:25;;;;;;;2.58;2.20;;;11.80;99.90;;;;;;5055168;28;20167;-78
2021/05/01 07:24:51;;;;;;;2.78;2.58;;;11.60;99.90;;;;;;5039811;28;20601;-79
2021/05/01 07:27:17;;;;;;;4.25;2.67;;;12.80;99.90;;;;;;5035334;28;20254;-78
2021/05/01 07:29:45;;;;;;;2.55;2.35;;;13.20;99.90;;;;;;5033853;28;20516;-78
2021/05/01 07:32:15;;;;;;;3.33;2.05;;;13.30;99.90;;;;;;5037523;28;20199;-78
2021/05/01 07:34:50;;;;;;;1.75;1.58;;;13.10;99.90;;;;;;5035694;28;20251;-78
2021/05/01 07:37:19;;;;;;;1.60;1.50;;;12.70;99.90;;;;;;5035455;28;20225;-77
2021/05/01 07:39:50;;;;;;;3.03;1.48;;;12.70;99.90;;;;;;5034835;28;20153;-77
2021/05/01 07:42:17;;;;;;;4.05;2.78;;;12.70;99.90;;;;;;5034610;28;20225;-78
2021/05/01 07:44:44;;;;;;;5.15;2.30;;;12.50;99.90;;;;;;5033382;28;20171;-80
2021/05/01 07:47:10;;;;;;;2.45;2.25;;;12.40;99.90;;;;;;5034466;28;20233;-78
2021/05/01 07:49:37;;;;;;;5.43;1.95;;;12.20;99.90;;;;;;5034414;28;20230;-78
2021/05/01 07:52:03;;;;;;;3.50;2.60;;;12.20;99.90;;;;;;5034588;28;20270;-77
2021/05/01 07:54:32;;;;;;;3.08;2.88;;;12.10;99.90;;;;;;5034172;28;20250;-78
2021/05/01 07:56:58;;;;;;;6.18;2.53;;;12.10;99.90;;;;;;5033848;28;20156;-77
2021/05/01 07:59:24;;;;;;;1.05;0.75;;;11.90;99.90;;;;;;5033989;28;20168;-78
2021/05/01 08:01:49;;;;;;;5.07;1.88;;;11.90;99.90;;;;;;5036019;28;20187;-78
2021/05/01 08:04:15;;;;;;;3.97;2.05;;;10.90;99.90;;;;;;5037609;28;20167;-78
2021/05/01 08:06:41;;;;;;;1.58;1.48;;;10.90;99.90;;;;;;5052378;28;20194;-79
2021/05/01 08:09:06;;;;;;;3.35;2.40;;;11.10;99.90;;;;;;5053935;28;20191;-80
2021/05/01 08:11:32;;;;;;;6.57;1.55;;;11.10;99.90;;;;;;5054544;28;20279;-79
2021/05/01 08:13:58;;;;;;;3.35;1.92;;;11.20;99.90;;;;;;5051178;28;20179;-79
2021/05/01 08:16:23;;;;;;;1.15;1.10;;;11.20;99.90;;;;;;5046151;28;20227;-78
2021/05/01 08:18:51;;;;;;;20.08;2.88;;;11.40;99.90;;;;;;5033735;28;20172;-78
2021/05/01 08:21:17;;;;;;;1.52;1.50;;;11.70;99.90;;;;;;5033852;28;20184;-81
2021/05/01 08:23:43;;;;;;;3.00;0.75;;;11.80;99.90;;;;;;5032914;28;20210;-77
2021/05/01 08:26:09;;;;;;;0.82;0.82;;;11.90;99.90;;;;;;5033901;28;20164;-77
2021/05/01 08:28:34;;;;;;;3.10;1.60;;;12.20;99.90;;;;;;5033716;28;20238;-77
2021/05/01 08:31:00;;;;;;;1.80;1.65;;;12.00;99.90;;;;;;5033709;28;20226;-77
2021/05/01 08:33:26;;;;;;;0.52;0.52;;;12.10;99.90;;;;;;5033831;28;20179;-76
2021/05/01 08:35:52;;;;;;;8.98;1.75;;;12.50;99.90;;;;;;5033610;28;20160;-76
2021/05/01 08:38:20;;;;;;;2.92;2.28;;;12.40;99.90;;;;;;5033578;28;20175;-76
2021/05/01 08:40:47;;;;;;;1.60;0.82;;;12.40;99.90;;;;;;5032130;28;20188;-76
2021/05/01 08:43:12;;;;;;;2.00;1.85;;;12.60;99.90;;;;;;5033269;28;20239;-77
2021/05/01 08:45:38;;;;;;;1.45;1.25;;;13.00;99.90;;;;;;5031965;28;20307;-77
2021/05/01 08:48:04;;;;;;;9.93;3.05;;;13.00;99.90;;;;;;5033118;28;20207;-78
2021/05/01 08:50:41;;;;;;;1.10;1.08;;;13.00;99.90;;;;;;5032281;28;20620;-79
2021/05/01 08:53:07;;;;;;;1.60;1.50;;;12.70;99.90;;;;;;5033457;28;20622;-78
2021/05/01 08:55:35;;;;;;;0.70;0.70;;;12.00;99.90;;;;;;5033385;28;20187;-78
2021/05/01 08:58:07;;;;;;;1.75;1.65;;;12.30;99.90;;;;;;5033232;28;20176;-81
2021/05/01 09:00:35;;;;;;;1.10;1.02;;;12.20;99.90;;;;;;5033732;28;20175;-79
2021/05/01 09:03:04;;;;;;;1.13;1.13;;;12.50;99.90;;;;;;5032942;28;20175;-80
2021/05/01 09:05:30;;;;;;;0.77;0.77;;;12.90;99.90;;;;;;5033427;28;20164;-79
2021/05/01 09:07:57;;;;;;;1.17;1.17;;;13.30;99.90;;;;;;5033358;28;20199;-80
2021/05/01 09:10:23;;;;;;;1.75;1.65;;;13.80;99.90;;;;;;5033446;28;20188;-78
2021/05/01 09:12:50;;;;;;;1.35;1.27;;;14.10;99.90;;;;;;5033424;28;20214;-77
2021/05/01 09:15:31;;;;;;;1.35;1.05;;;14.30;99.90;;;;;;5033785;28;20163;-78
2021/05/01 09:17:59;;;;;;;1.02;0.93;;;13.90;99.90;;;;;;5033204;28;20689;-78
2021/05/01 09:20:25;;;;;;;1.85;0.98;;;13.50;99.90;;;;;;5033402;28;20176;-77
2021/05/01 09:23:01;;;;;;;2.80;1.80;;;13.10;99.90;;;;;;5031964;28;20575;-77
2021/05/01 09:25:31;;;;;;;1.20;1.10;;;13.10;99.90;;;;;;5033202;28;20519;-79
2021/05/01 09:27:59;;;;;;;3.00;1.27;;;13.00;99.90;;;;;;5032983;28;20713;-78
2021/05/01 09:30:28;;;;;;;0.98;0.98;;;13.30;99.90;;;;;;5033135;28;20195;-76
2021/05/01 09:33:17;;;;;;;1.70;1.60;;;13.40;99.90;;;;;;5033362;28;20182;-77
2021/05/01 09:35:45;;;;;;;0.68;0.68;;;13.60;99.90;;;;;;5033356;28;20179;-77
2021/05/01 09:38:12;;;;;;;3.63;1.27;;;13.30;99.90;;;;;;5032178;28;20168;-78
2021/05/01 09:40:44;;;;;;;1.55;1.40;;;13.50;99.90;;;;;;5036462;28;20187;-78
2021/05/01 09:43:10;;;;;;;1.58;1.48;;;13.50;99.90;;;;;;5040701;28;20243;-77
2021/05/01 09:45:37;;;;;;;0.82;0.82;;;13.80;99.90;;;;;;5037530;28;20211;-78
2021/05/01 09:48:19;;;;;;;1.35;1.23;;;13.90;99.90;;;;;;5036270;28;20274;-78
2021/05/01 09:50:47;;;;;;;1.75;1.40;;;13.70;99.90;;;;;;5033165;28;20655;-78
2021/05/01 09:53:15;;;;;;;1.58;1.48;;;14.00;99.90;;;;;;5033054;28;20179;-78
2021/05/01 09:55:47;;;;;;;1.83;1.67;;;14.20;99.90;;;;;;5032918;28;20247;-78
2021/05/01 09:58:19;;;;;;;2.22;2.13;;;14.50;99.90;;;;;;5033118;28;20168;-79
2021/05/01 10:00:46;;;;;;;3.20;1.83;;;14.40;99.90;;;;;;5031681;28;20234;-80
2021/05/01 10:03:24;;;;;;;2.75;2.05;;;14.10;99.90;;;;;;5032910;28;20635;-79
2021/05/01 10:05:51;;;;;;;3.13;1.77;;;14.00;99.90;;;;;;5031721;28;20172;-79
2021/05/01 10:08:19;;;;;;;5.82;2.28;;;13.90;99.90;;;;;;5032733;28;20187;-79
2021/05/01 10:10:46;;;;;;;1.83;1.73;;;13.80;99.90;;;;;;5034393;28;20276;-79
2021/05/01 10:13:14;;;;;;;0.93;0.93;;;13.90;99.90;;;;;;5037073;28;20160;-78
2021/05/01 10:15:40;;;;;;;1.40;1.30;;;13.70;99.90;;;;;;5036976;28;20255;-78
2021/05/01 10:18:19;;;;;;;2.15;1.60;;;13.70;99.90;;;;;;5036563;28;20259;-78
2021/05/01 10:20:48;;;;;;;12.75;2.03;;;13.50;99.90;;;;;;5036648;28;20212;-78
2021/05/01 10:23:20;;;;;;;2.30;1.15;;;13.40;99.90;;;;;;5036777;28;20683;-78
2021/05/01 10:25:47;;;;;;;2.45;2.25;;;13.40;99.90;;;;;;5036765;28;20175;-78
2021/05/01 10:28:16;;;;;;;2.65;2.03;;;13.50;99.90;;;;;;5037648;28;20690;-78
2021/05/01 10:30:48;;;;;;;1.73;1.60;;;13.90;99.90;;;;;;5037818;28;20191;-78
2021/05/01 10:33:24;;;;;;;1.90;1.80;;;14.20;99.90;;;;;;5038379;28;20239;-77
2021/05/01 10:36:12;;;;;;;3.33;2.17;;;13.80;99.90;;;;;;5037367;28;20643;-78
2021/05/01 10:38:39;;;;;;;3.03;2.08;;;13.50;99.90;;;;;;5029219;28;20816;-76
2021/05/01 10:41:17;;;;;;;1.90;1.80;;;13.30;99.90;;;;;;5034653;28;20410;-76
2021/05/01 10:43:49;;;;;;;1.60;1.50;;;13.50;99.90;;;;;;5036200;28;20242;-77
2021/05/01 10:46:22;;;;;;;0.95;0.85;;;13.60;99.90;;;;;;5037364;28;20160;-76
2021/05/01 10:48:52;;;;;;;1.55;1.48;;;13.60;99.90;;;;;;5036677;28;20671;-78
2021/05/01 10:51:20;;;;;;;1.27;1.02;;;13.60;99.90;;;;;;5039857;28;20188;-79
2021/05/01 10:53:50;;;;;;;0.70;0.70;;;13.80;99.90;;;;;;5036692;28;20994;-79
2021/05/01 10:56:27;;;;;;;0.73;0.73;;;13.70;99.90;;;;;;5049896;28;20163;-78
2021/05/01 10:58:53;;;;;;;4.95;1.55;;;13.80;99.90;;;;;;5056056;28;20175;-78
2021/05/01 11:01:37;;;;;;;1.15;1.00;;;13.70;99.90;;;;;;5043670;28;20192;-79
2021/05/01 11:04:07;;;;;;;0.90;0.90;;;13.70;99.90;;;;;;5036377;28;20213;-78
2021/05/01 11:06:45;;;;;;;1.05;0.90;;;13.70;99.90;;;;;;5035174;28;20171;-78
2021/05/01 11:09:17;;;;;;;1.67;1.45;;;13.60;99.90;;;;;;5035284;28;20203;-78
2021/05/01 11:11:46;;;;;;;1.35;1.10;;;13.60;99.90;;;;;;5036286;28;20232;-77
2021/05/01 11:14:24;;;;;;;0.77;0.77;;;13.70;99.90;;;;;;5036528;28;20163;-78
2021/05/01 11:17:04;;;;;;;1.05;1.05;;;13.90;99.90;;;;;;5036472;28;20251;-77
2021/05/01 11:19:32;;;;;;;2.67;1.08;;;14.00;99.90;;;;;;5035902;28;20168;-77
2021/05/01 11:21:58;;;;;;;2.45;1.90;;;14.30;99.90;;;;;;5036013;28;20188;-78
2021/05/01 11:24:26;;;;;;;2.40;1.05;;;14.40;99.90;;;;;;5035812;28;20171;-78
2021/05/01 11:26:52;;;;;;;4.22;2.05;;;14.20;99.90;;;;;;5035686;28;20234;-80
2021/05/01 11:29:20;;;;;;;1.45;1.35;;;14.00;99.90;;;;;;5035379;28;20254;-78
2021/05/01 11:31:46;;;;;;;1.67;1.38;;;14.00;99.90;;;;;;5034154;28;20195;-78
2021/05/01 11:34:14;;;;;;;0.88;0.73;;;14.20;99.90;;;;;;5033991;28;20194;-78
2021/05/01 11:36:50;;;;;;;1.38;1.27;;;14.40;99.80;;;;;;5035225;28;20200;-79
2021/05/01 11:39:16;;;;;;;12.02;1.60;;;14.50;99.40;;;;;;5036741;28;20160;-79
2021/05/01 11:41:45;;;;;;;0.98;0.98;;;14.40;99.10;;;;;;5035483;28;20187;-79
2021/05/01 11:44:12;;;;;;;4.68;2.10;;;14.50;99.10;;;;;;5035051;28;20161;-78
2021/05/01 11:46:55;;;;;;;0.30;0.30;;;14.50;98.00;;;;;;5035136;28;20499;-79
2021/05/01 11:49:27;;;;;;;0.52;0.52;;;14.60;97.10;;;;;;5034784;28;20211;-79
2021/05/01 11:51:58;;;;;;;0.73;0.70;;;14.70;96.40;;;;;;5034902;28;20184;-78
2021/05/01 11:54:42;;;;;;;2.47;1.27;;;15.10;97.60;;;;;;5036650;28;20164;-79
2021/05/01 11:57:32;;;;;;;1.55;1.45;;;15.40;97.00;;;;;;5034923;28;20558;-77
2021/05/01 11:59:59;;;;;;;0.80;0.80;;;15.50;97.60;;;;;;5035654;28;20329;-78
2021/05/01 12:02:42;;;;;;;1.00;0.85;;;15.80;97.80;;;;;;5035995;28;20225;-80
2021/05/01 12:05:18;;;;;;;2.28;1.60;;;15.90;98.60;;;;;;5034592;28;20235;-77
2021/05/01 12:08:20;;;;;;;1.63;1.52;;;15.50;99.90;;;;;;5034797;28;20693;-77
2021/05/01 12:10:48;;;;;;;3.45;1.40;;;15.10;99.90;;;;;;5038252;28;20215;-79
2021/05/01 12:13:36;;;;;;;1.67;1.58;;;14.40;99.90;;;;;;5042555;28;20164;-78
2021/05/01 12:16:03;;;;;;;1.75;1.60;;;14.10;99.90;;;;;;5036988;28;20263;-78
2021/05/01 12:18:50;;;;;;;10.13;2.38;;;14.00;99.90;;;;;;5038799;28;20160;-78
2021/05/01 12:21:24;;;;;;;1.88;1.38;;;13.90;99.90;;;;;;5054772;28;20237;-78
2021/05/01 12:23:52;;;;;;;2.20;1.15;;;13.60;99.90;;;;;;5066777;28;20159;-79
2021/05/01 12:26:33;;;;;;;1.55;1.45;;;13.30;99.90;;;;;;5041683;28;20179;-78
2021/05/01 12:29:22;;;;;;;1.35;1.25;;;13.40;99.90;;;;;;5030470;28;20282;-78
2021/05/01 12:31:56;;;;;;;1.83;1.73;;;13.40;99.90;;;;;;5021558;28;20573;-79
2021/05/01 12:34:51;;;;;;;1.15;1.08;;;13.10;99.90;;;;;;5015282;28;20174;-78
2021/05/01 12:37:20;;;;;;;1.35;1.25;;;13.00;99.90;;;;;;5001523;28;20172;-77
2021/05/01 12:39:47;;;;;;;1.25;1.15;;;13.00;99.90;;;;;;4996015;28;20707;-77
2021/05/01 12:42:26;;;;;;;1.45;1.35;;;13.30;99.90;;;;;;5013794;28;20191;-77
2021/05/01 12:44:52;;;;;;;2.13;1.90;;;13.80;99.90;;;;;;5013906;28;20171;-77
2021/05/01 12:47:36;;;;;;;1.58;1.42;;;14.30;99.90;;;;;;5013635;28;20168;-78
2021/05/01 12:50:11;;;;;;;1.48;1.38;;;14.70;99.90;;;;;;4998065;28;20577;-77
2021/05/01 12:52:37;;;;;;;1.00;1.00;;;15.00;99.90;;;;;;5014614;28;20167;-77
2021/05/01 12:55:02;;;;;;;1.15;0.95;;;15.00;99.90;;;;;;5052784;28;20261;-76
2021/05/01 12:57:33;;;;;;;1.50;1.40;;;15.10;99.00;;;;;;5034469;28;20199;-76
2021/05/01 13:00:23;;;;;;;5.05;2.42;;;15.00;98.50;;;;;;5033078;28;20242;-76